createdAt,value
2022-09-02T00:02:25.110Z,3.88
2022-09-02T00:04:52.107Z,3.70
2022-09-02T00:07:19.008Z,3.65
2022-09-02T00:09:45.940Z,3.20
2022-09-02T00:12:12.983Z,3.42
2022-09-02T00:14:40.201Z,3.50
2022-09-02T00:17:07.173Z,3.45
2022-09-02T00:19:35.042Z,3.55
2022-09-02T00:22:03.480Z,3.60
2022-09-02T00:24:31.455Z,3.50
2022-09-02T00:26:58.606Z,3.30
2022-09-02T00:29:27.679Z,3.35
2022-09-02T00:31:55.086Z,3.00
2022-09-02T00:34:22.358Z,3.47
2022-09-02T00:36:49.421Z,3.42
2022-09-02T00:39:17.159Z,3.30
2022-09-02T00:41:44.917Z,4.03
2022-09-02T00:44:16.913Z,4.10
2022-09-02T00:46:44.775Z,3.80
2022-09-02T00:49:27.526Z,3.60
2022-09-02T00:52:08.356Z,3.90
2022-09-02T00:54:41.851Z,4.03
2022-09-02T00:57:13.568Z,4.37
2022-09-02T01:00:13.885Z,3.95
2022-09-02T01:02:42.673Z,3.40
2022-09-02T01:05:13.406Z,4.17
2022-09-02T01:07:40.816Z,4.20
2022-09-02T01:10:13.749Z,4.10
2022-09-02T01:12:41.242Z,3.93
2022-09-02T01:15:11.790Z,3.73
2022-09-02T01:17:47.743Z,3.83
2022-09-02T01:20:21.201Z,3.57
2022-09-02T01:22:54.836Z,3.47
2022-09-02T01:25:27.397Z,3.90
2022-09-02T01:28:01.038Z,3.70
2022-09-02T01:30:29.088Z,3.80
2022-09-02T01:32:56.243Z,3.80
2022-09-02T01:35:23.522Z,5.03
2022-09-02T01:37:56.019Z,4.40
2022-09-02T01:40:24.480Z,3.83
2022-09-02T01:42:59.739Z,3.97
2022-09-02T01:45:26.832Z,4.00
2022-09-02T01:47:53.836Z,3.80
2022-09-02T01:50:21.553Z,4.47
2022-09-02T01:52:48.502Z,3.80
2022-09-02T01:55:15.408Z,3.97
2022-09-02T01:57:42.390Z,3.73
2022-09-02T02:00:11.970Z,3.57
2022-09-02T02:02:39.386Z,3.77
2022-09-02T02:05:07.225Z,4.20
2022-09-02T02:07:34.353Z,4.20
2022-09-02T02:10:01.284Z,4.80
2022-09-02T02:12:28.435Z,5.07
2022-09-02T02:14:55.343Z,4.70
2022-09-02T02:17:23.121Z,5.10
2022-09-02T02:19:50.088Z,5.33
2022-09-02T02:22:17.477Z,5.30
2022-09-02T02:24:44.469Z,4.73
2022-09-02T02:27:11.602Z,4.70
2022-09-02T02:29:38.600Z,4.63
2022-09-02T02:32:07.475Z,5.07
2022-09-02T02:34:35.247Z,4.40
2022-09-02T02:37:02.349Z,4.00
2022-09-02T02:39:29.263Z,4.87
2022-09-02T02:41:56.240Z,5.00
2022-09-02T02:44:23.934Z,4.63
2022-09-02T02:46:50.992Z,4.13
2022-09-02T02:49:18.052Z,5.13
2022-09-02T02:51:47.868Z,4.97
2022-09-02T02:54:14.978Z,4.93
2022-09-02T02:56:42.457Z,5.53
2022-09-02T02:59:09.554Z,5.37
2022-09-02T03:01:36.568Z,5.33
2022-09-02T03:04:04.657Z,5.30
2022-09-02T03:06:31.692Z,5.30
2022-09-02T03:09:00.627Z,5.63
2022-09-02T03:11:28.508Z,5.23
2022-09-02T03:13:55.968Z,5.70
2022-09-02T03:16:23.378Z,5.67
2022-09-02T03:18:51.304Z,5.77
2022-09-02T03:21:19.204Z,5.57
2022-09-02T03:23:47.379Z,6.00
2022-09-02T03:26:21.053Z,5.70
2022-09-02T03:28:49.405Z,5.13
2022-09-02T03:31:21.471Z,5.30
2022-09-02T03:33:48.434Z,5.43
2022-09-02T03:36:31.950Z,5.67
2022-09-02T03:38:59.105Z,6.47
2022-09-02T03:41:26.469Z,6.20
2022-09-02T03:43:53.436Z,5.90
2022-09-02T03:46:20.603Z,5.40
2022-09-02T03:48:49.156Z,5.80
2022-09-02T03:51:16.206Z,5.50
2022-09-02T03:53:43.124Z,5.50
2022-09-02T03:56:13.188Z,5.23
2022-09-02T03:58:44.274Z,5.57
2022-09-02T04:01:21.085Z,5.90
2022-09-02T04:03:48.346Z,5.83
2022-09-02T04:06:17.435Z,6.50
2022-09-02T04:08:45.133Z,5.70
2022-09-02T04:11:17.803Z,5.90
2022-09-02T04:13:46.764Z,5.53
2022-09-02T04:16:19.566Z,5.97
2022-09-02T04:18:46.972Z,5.80
2022-09-02T04:21:14.689Z,5.73
2022-09-02T04:23:41.765Z,4.93
2022-09-02T04:26:13.641Z,4.90
2022-09-02T04:28:41.308Z,6.33
2022-09-02T04:31:12.008Z,6.23
2022-09-02T04:33:39.805Z,6.30
2022-09-02T04:36:10.040Z,5.67
2022-09-02T04:38:40.352Z,6.33
2022-09-02T04:41:14.673Z,6.57
2022-09-02T04:43:42.253Z,5.93
2022-09-02T04:46:13.676Z,5.83
2022-09-02T04:48:44.312Z,5.83
2022-09-02T04:51:16.584Z,5.83
2022-09-02T04:53:45.754Z,5.90
2022-09-02T04:56:17.151Z,5.53
2022-09-02T04:58:44.623Z,5.67
2022-09-02T05:01:16.899Z,6.20
2022-09-02T05:03:45.507Z,6.23
2022-09-02T05:06:18.975Z,6.07
2022-09-02T05:08:48.340Z,5.70
2022-09-02T05:11:20.538Z,5.80
2022-09-02T05:13:51.578Z,5.80
2022-09-02T05:16:22.806Z,5.07
2022-09-02T05:18:51.888Z,5.87
2022-09-02T05:21:19.819Z,6.03
2022-09-02T05:23:47.053Z,5.83
2022-09-02T05:26:14.242Z,5.33
2022-09-02T05:28:42.949Z,5.67
2022-09-02T05:31:13.804Z,5.93
2022-09-02T05:33:42.222Z,6.07
2022-09-02T05:36:14.441Z,5.53
2022-09-02T05:38:43.456Z,6.20
2022-09-02T05:41:18.227Z,6.13
2022-09-02T05:43:45.973Z,6.50
2022-09-02T05:46:21.152Z,6.90
2022-09-02T05:49:18.587Z,6.10
2022-09-02T05:51:55.721Z,7.40
2022-09-02T05:54:30.227Z,5.80
2022-09-02T05:57:01.728Z,5.90
2022-09-02T05:59:30.867Z,6.77
2022-09-02T06:01:59.800Z,6.78
2022-09-02T06:04:26.876Z,6.50
2022-09-02T06:06:53.881Z,6.43
2022-09-02T06:09:24.230Z,6.27
2022-09-02T06:11:52.176Z,6.90
2022-09-02T06:14:25.373Z,6.38
2022-09-02T06:16:54.977Z,6.40
2022-09-02T06:19:28.910Z,5.55
2022-09-02T06:21:57.340Z,5.60
2022-09-02T06:24:25.098Z,5.88
2022-09-02T06:26:55.611Z,5.63
2022-09-02T06:29:25.615Z,5.63
2022-09-02T06:31:52.998Z,6.13
2022-09-02T06:34:22.690Z,6.07
2022-09-02T06:36:50.767Z,6.03
2022-09-02T06:39:21.730Z,6.93
2022-09-02T06:41:49.441Z,6.38
2022-09-02T06:44:18.406Z,6.30
2022-09-02T06:46:54.416Z,5.95
2022-09-02T06:49:23.070Z,5.47
2022-09-02T06:51:52.256Z,6.13
2022-09-02T06:54:21.800Z,5.90
2022-09-02T06:56:51.045Z,5.93
2022-09-02T06:59:20.568Z,5.28
2022-09-02T07:01:48.783Z,5.93
2022-09-02T07:04:35.812Z,4.78
2022-09-02T07:07:06.302Z,4.80
2022-09-02T07:09:33.516Z,4.70
2022-09-02T07:12:05.137Z,4.53
2022-09-02T07:14:41.457Z,4.63
2022-09-02T07:17:10.691Z,4.40
2022-09-02T07:19:38.091Z,4.40
2022-09-02T07:22:08.707Z,4.45
2022-09-02T07:24:37.635Z,4.70
2022-09-02T07:27:05.913Z,4.75
2022-09-02T07:29:34.335Z,4.47
2022-09-02T07:32:02.188Z,5.88
2022-09-02T07:34:29.338Z,4.90
2022-09-02T07:37:00.236Z,4.90
2022-09-02T07:39:30.359Z,4.72
2022-09-02T07:41:57.316Z,4.20
2022-09-02T07:44:24.959Z,4.15
2022-09-02T07:46:52.511Z,4.70
2022-09-02T07:49:23.973Z,4.35
2022-09-02T07:51:52.123Z,4.13
2022-09-02T07:54:23.799Z,4.18
2022-09-02T07:56:51.464Z,5.03
2022-09-02T07:59:19.516Z,4.20
2022-09-02T08:01:48.374Z,4.75
2022-09-02T08:04:16.432Z,4.00
2022-09-02T08:06:43.373Z,3.88
2022-09-02T08:09:11.413Z,4.05
2022-09-02T08:11:41.699Z,4.00
2022-09-02T08:14:12.041Z,3.90
2022-09-02T08:16:40.219Z,4.00
2022-09-02T08:19:08.365Z,3.83
2022-09-02T08:21:35.576Z,3.95
2022-09-02T08:24:03.066Z,3.92
2022-09-02T08:26:30.419Z,4.25
2022-09-02T08:28:57.682Z,4.53
2022-09-02T08:31:24.673Z,3.83
2022-09-02T08:33:51.583Z,4.00
2022-09-02T08:36:19.169Z,4.13
2022-09-02T08:38:46.097Z,4.18
2022-09-02T08:41:31.038Z,3.90
2022-09-02T08:44:01.023Z,4.32
2022-09-02T08:46:31.591Z,4.53
2022-09-02T08:49:19.319Z,4.38
2022-09-02T08:51:53.228Z,4.47
2022-09-02T08:54:30.484Z,5.07
2022-09-02T08:56:58.130Z,3.78
2022-09-02T08:59:28.034Z,4.70
2022-09-02T09:02:27.570Z,4.47
2022-09-02T09:05:23.934Z,4.80
2022-09-02T09:08:23.202Z,5.30
2022-09-02T09:11:06.021Z,5.28
2022-09-02T09:13:56.936Z,4.72
2022-09-02T09:16:43.395Z,4.20
2022-09-02T09:19:48.722Z,4.20
2022-09-02T09:22:25.063Z,4.50
2022-09-02T09:24:52.072Z,4.53
2022-09-02T09:27:22.318Z,4.82
2022-09-02T09:29:51.399Z,4.72
2022-09-02T09:32:33.483Z,4.13
2022-09-02T09:35:09.997Z,4.55
2022-09-02T09:37:51.755Z,4.43
2022-09-02T09:40:21.604Z,3.95
2022-09-02T09:42:55.349Z,4.00
2022-09-02T09:45:32.354Z,3.95
2022-09-02T09:48:17.335Z,4.28
2022-09-02T09:50:46.696Z,3.83
2022-09-02T09:53:24.249Z,4.00
2022-09-02T09:55:54.352Z,4.05
2022-09-02T09:58:46.429Z,4.15
2022-09-02T10:01:15.541Z,3.65
2022-09-02T10:03:49.839Z,3.83
2022-09-02T10:06:38.592Z,2.97
2022-09-02T10:09:14.566Z,3.35
2022-09-02T10:12:05.130Z,3.60
2022-09-02T10:14:45.067Z,3.20
2022-09-02T10:17:45.851Z,3.45
2022-09-02T10:21:04.886Z,3.28
2022-09-02T10:23:41.495Z,3.33
2022-09-02T10:26:49.393Z,2.83
2022-09-02T10:29:49.077Z,3.22
2022-09-02T10:32:35.990Z,2.78
2022-09-02T10:35:29.283Z,3.33
2022-09-02T10:38:42.525Z,3.10
2022-09-02T10:44:24.481Z,2.50
2022-09-02T10:47:04.308Z,2.53
2022-09-02T10:50:08.016Z,2.65
2022-09-02T10:53:25.962Z,2.78
2022-09-02T10:55:58.687Z,2.67
2022-09-02T10:58:40.824Z,3.03
2022-09-02T11:01:16.234Z,2.70
2022-09-02T11:04:04.759Z,2.90
2022-09-02T11:07:01.426Z,3.00
2022-09-02T11:09:44.214Z,2.50
2022-09-02T11:12:29.716Z,3.00
2022-09-02T11:15:24.229Z,2.80
2022-09-02T11:18:33.430Z,2.80
2022-09-02T11:21:38.980Z,2.53
2022-09-02T11:24:20.308Z,3.13
2022-09-02T11:27:25.982Z,3.38
2022-09-02T11:30:13.510Z,2.50
2022-09-02T11:33:14.719Z,3.00
2022-09-02T11:35:45.031Z,3.00
2022-09-02T11:38:35.888Z,2.92
2022-09-02T11:41:37.467Z,2.42
2022-09-02T11:44:52.158Z,2.60
2022-09-02T11:47:56.465Z,2.40
2022-09-02T11:50:39.273Z,2.70
2022-09-02T11:53:27.613Z,2.55
2022-09-02T11:56:18.568Z,2.70
2022-09-02T11:58:51.223Z,3.28
2022-09-02T12:01:31.689Z,2.60
2022-09-02T12:07:09.857Z,3.20
2022-09-02T12:09:56.847Z,2.90
2022-09-02T12:12:39.245Z,3.30
2022-09-02T12:15:06.661Z,2.80
2022-09-02T12:18:14.831Z,2.70
2022-09-02T12:20:42.654Z,2.65
2022-09-02T12:23:53.881Z,2.90
2022-09-02T12:26:25.913Z,2.80
2022-09-02T12:28:54.976Z,3.10
2022-09-02T12:31:43.339Z,3.13
2022-09-02T12:34:25.346Z,3.13
2022-09-02T12:37:02.695Z,3.30
2022-09-02T12:39:30.364Z,4.28
2022-09-02T12:42:12.762Z,2.60
2022-09-02T12:45:05.588Z,2.80
2022-09-02T12:48:12.238Z,3.00
2022-09-02T12:50:56.462Z,3.08
2022-09-02T12:53:35.284Z,3.15
2022-09-02T12:56:23.630Z,3.00
2022-09-02T12:59:02.538Z,2.72
2022-09-02T13:02:00.320Z,2.92
2022-09-02T13:04:46.645Z,2.88
2022-09-02T13:07:50.384Z,2.67
2022-09-02T13:10:58.126Z,2.97
2022-09-02T13:13:36.850Z,2.90
2022-09-02T13:16:28.882Z,2.60
2022-09-02T13:19:21.749Z,2.25
2022-09-02T13:22:26.531Z,2.78
2022-09-02T13:26:03.592Z,2.80
2022-09-02T13:29:06.623Z,2.60
2022-09-02T13:31:34.143Z,2.97
2022-09-02T13:34:08.182Z,3.00
2022-09-02T13:36:44.391Z,2.60
2022-09-02T13:39:27.227Z,2.70
2022-09-02T13:41:55.000Z,2.60
2022-09-02T13:44:31.731Z,2.50
2022-09-02T13:47:20.763Z,2.55
2022-09-02T13:49:51.990Z,2.33
2022-09-02T13:53:01.114Z,2.40
2022-09-02T13:55:14.695Z,2.40
2022-09-02T13:57:50.169Z,2.40
2022-09-02T14:00:33.341Z,2.92
2022-09-02T14:03:24.124Z,2.33
2022-09-02T14:05:53.651Z,2.40
2022-09-02T14:08:25.970Z,2.40
2022-09-02T14:10:54.010Z,2.47
2022-09-02T14:13:22.620Z,2.60
2022-09-02T14:15:49.620Z,2.35
2022-09-02T14:18:22.913Z,2.50
2022-09-02T14:21:00.267Z,2.70
2022-09-02T14:23:33.415Z,2.88
2022-09-02T14:26:02.163Z,2.65
2022-09-02T14:28:38.459Z,2.55
2022-09-02T14:31:08.644Z,2.70
2022-09-02T14:33:44.899Z,2.30
2022-09-02T14:36:17.900Z,2.45
2022-09-02T14:38:47.823Z,2.90
2022-09-02T14:41:17.653Z,2.63
2022-09-02T14:44:12.033Z,2.38
2022-09-02T14:46:45.739Z,2.50
2022-09-02T14:49:28.997Z,2.60
2022-09-02T14:52:04.022Z,2.70
2022-09-02T14:54:41.445Z,2.50
2022-09-02T14:57:32.825Z,2.60
2022-09-02T15:00:06.914Z,3.50
2022-09-02T15:02:36.231Z,3.00
2022-09-02T15:05:10.058Z,3.70
2022-09-02T15:07:37.169Z,3.97
2022-09-02T15:10:09.174Z,3.40
2022-09-02T15:12:49.986Z,3.60
2022-09-02T15:15:17.816Z,3.60
2022-09-02T15:17:44.756Z,3.58
2022-09-02T15:20:12.213Z,3.42
2022-09-02T15:22:39.237Z,4.05
2022-09-02T15:25:08.588Z,3.88
2022-09-02T15:27:37.026Z,3.85
2022-09-02T15:30:06.333Z,3.85
2022-09-02T15:32:33.276Z,4.00
2022-09-02T15:35:00.159Z,3.50
2022-09-02T15:37:27.919Z,3.08
2022-09-02T15:39:55.272Z,3.20
2022-09-02T15:42:22.508Z,3.22
2022-09-02T15:44:49.566Z,3.05
2022-09-02T15:47:16.498Z,3.08
2022-09-02T15:49:47.425Z,3.28
2022-09-02T15:52:14.354Z,2.97
2022-09-02T15:54:41.771Z,3.40
2022-09-02T15:57:08.789Z,3.08
2022-09-02T15:59:35.759Z,3.45
2022-09-02T16:02:03.509Z,3.30
2022-09-02T16:04:30.716Z,3.38
2022-09-02T16:07:01.339Z,3.75
2022-09-02T16:09:34.132Z,3.50
2022-09-02T16:12:01.227Z,3.78
2022-09-02T16:14:28.547Z,3.55
2022-09-02T16:16:55.963Z,3.85
2022-09-02T16:19:27.635Z,3.72
2022-09-02T16:22:00.389Z,3.40
2022-09-02T16:24:27.439Z,3.42
2022-09-02T16:26:54.358Z,3.60
2022-09-02T16:29:21.420Z,3.55
2022-09-02T16:32:02.145Z,3.58
2022-09-02T16:34:41.137Z,3.65
2022-09-02T16:37:08.133Z,3.42
2022-09-02T16:39:35.671Z,3.72
2022-09-02T16:42:13.891Z,3.38
2022-09-02T16:44:41.510Z,3.53
2022-09-02T16:47:08.564Z,3.17
2022-09-02T16:49:39.870Z,3.80
2022-09-02T16:52:07.030Z,3.35
2022-09-02T16:54:40.073Z,3.40
2022-09-02T16:57:07.996Z,3.40
2022-09-02T16:59:35.002Z,3.40
2022-09-02T17:02:06.244Z,3.50
2022-09-02T17:04:33.359Z,3.45
2022-09-02T17:07:00.379Z,3.28
2022-09-02T17:09:27.272Z,3.72
2022-09-02T17:11:54.495Z,3.80
2022-09-02T17:14:21.901Z,3.75
2022-09-02T17:16:51.698Z,3.58
2022-09-02T17:19:24.450Z,3.33
2022-09-02T17:21:55.041Z,3.60
2022-09-02T17:24:24.975Z,3.53
2022-09-02T17:26:55.972Z,3.53
2022-09-02T17:29:48.998Z,3.50
2022-09-02T17:32:16.768Z,3.80
2022-09-02T17:34:43.656Z,3.40
2022-09-02T17:37:10.786Z,4.00
2022-09-02T17:39:38.066Z,4.00
2022-09-02T17:42:06.737Z,3.63
2022-09-02T17:44:37.633Z,3.95
2022-09-02T17:47:21.146Z,3.97
2022-09-02T17:49:52.433Z,3.47
2022-09-02T17:52:47.152Z,3.70
2022-09-02T17:55:14.905Z,3.83
2022-09-02T17:58:03.764Z,3.70
2022-09-02T18:00:39.795Z,4.47
2022-09-02T18:03:32.796Z,4.10
2022-09-02T18:06:31.142Z,4.20
2022-09-02T18:09:11.681Z,4.10
2022-09-02T18:11:51.710Z,3.88
2022-09-02T18:14:48.650Z,3.80
2022-09-02T18:17:40.945Z,3.92
2022-09-02T18:20:36.100Z,3.85
2022-09-02T18:23:24.279Z,3.72
2022-09-02T18:26:03.750Z,3.90
2022-09-02T18:28:59.306Z,4.13
2022-09-02T18:31:44.507Z,4.30
2022-09-02T18:35:01.519Z,4.50
2022-09-02T18:38:10.825Z,4.10
2022-09-02T18:41:01.954Z,3.70
2022-09-02T18:44:36.419Z,3.78
2022-09-02T18:47:10.626Z,3.72
2022-09-02T18:49:42.681Z,4.18
2022-09-02T18:52:24.532Z,3.92
2022-09-02T18:55:06.706Z,4.57
2022-09-02T18:58:00.182Z,4.35
2022-09-02T19:00:28.345Z,3.95
2022-09-02T19:03:09.848Z,3.70
2022-09-02T19:05:37.044Z,3.78
2022-09-02T19:08:32.879Z,4.00
2022-09-02T19:11:14.976Z,3.90
2022-09-02T19:14:00.966Z,3.92
2022-09-02T19:16:38.226Z,3.92
2022-09-02T19:19:21.032Z,3.70
2022-09-02T19:22:10.517Z,3.85
2022-09-02T19:24:50.809Z,3.72
2022-09-02T19:27:34.762Z,4.32
2022-09-02T19:30:22.464Z,4.35
2022-09-02T19:32:57.254Z,3.90
2022-09-02T19:35:30.307Z,4.30
2022-09-02T19:37:57.240Z,3.50
2022-09-02T19:40:29.180Z,4.18
2022-09-02T19:42:56.168Z,4.05
2022-09-02T19:45:23.563Z,4.72
2022-09-02T19:48:06.675Z,4.50
2022-09-02T19:50:43.344Z,4.32
2022-09-02T19:53:22.819Z,4.70
2022-09-02T19:55:51.227Z,4.70
2022-09-02T19:58:26.950Z,4.88
2022-09-02T20:01:08.346Z,4.93
2022-09-02T20:03:35.522Z,4.88
2022-09-02T20:06:02.946Z,4.82
2022-09-02T20:08:31.195Z,4.65
2022-09-02T20:11:05.234Z,4.10
2022-09-02T20:13:41.334Z,4.45
2022-09-02T20:16:18.491Z,5.13
2022-09-02T20:18:46.723Z,5.40
2022-09-02T20:21:27.587Z,5.32
2022-09-02T20:23:58.754Z,5.03
2022-09-02T20:26:59.114Z,4.32
2022-09-02T20:29:49.571Z,4.60
2022-09-02T20:32:50.282Z,4.30
2022-09-02T20:36:02.482Z,5.15
2022-09-02T20:39:15.977Z,4.60
2022-09-02T20:42:03.461Z,4.35
2022-09-02T20:44:34.539Z,4.32
2022-09-02T20:47:25.200Z,4.55
2022-09-02T20:50:32.418Z,5.20
2022-09-02T20:53:24.587Z,5.38
2022-09-02T20:56:48.523Z,5.25
2022-09-02T21:00:05.374Z,5.43
2022-09-02T21:02:43.453Z,4.90
2022-09-02T21:05:23.983Z,5.43
2022-09-02T21:08:24.587Z,5.32
2022-09-02T21:11:01.038Z,5.30
2022-09-02T21:13:38.668Z,5.60
2022-09-02T21:16:19.726Z,5.03
2022-09-02T21:19:12.178Z,5.38
2022-09-02T21:21:45.073Z,5.30
2022-09-02T21:24:24.761Z,5.15
2022-09-02T21:27:11.096Z,5.05
2022-09-02T21:29:50.106Z,5.43
2022-09-02T21:32:40.558Z,5.63
2022-09-02T21:35:38.387Z,6.25
2022-09-02T21:38:35.923Z,6.00
2022-09-02T21:41:20.376Z,6.25
2022-09-02T21:44:01.035Z,5.20
2022-09-02T21:47:15.449Z,5.65
2022-09-02T21:50:22.019Z,6.13
2022-09-02T21:53:16.860Z,6.53
2022-09-02T21:55:43.745Z,6.57
2022-09-02T21:58:31.799Z,5.82
2022-09-02T22:01:09.710Z,6.10
2022-09-02T22:03:46.579Z,5.63
2022-09-02T22:06:22.738Z,6.18
2022-09-02T22:08:55.152Z,5.97
2022-09-02T22:11:54.907Z,7.70
2022-09-02T22:14:44.801Z,6.90
2022-09-02T22:17:37.116Z,7.35
2022-09-02T22:20:07.524Z,7.55
2022-09-02T22:22:44.769Z,6.75
2022-09-02T22:25:17.653Z,6.75
2022-09-02T22:28:04.658Z,6.32
2022-09-02T22:30:33.525Z,6.93
2022-09-02T22:33:14.690Z,7.72
2022-09-02T22:36:22.585Z,7.85
2022-09-02T22:38:53.376Z,7.90
2022-09-02T22:41:33.132Z,8.02
2022-09-02T22:44:22.859Z,7.95
2022-09-02T22:47:24.342Z,8.00
2022-09-02T22:50:15.227Z,7.38
2022-09-02T22:52:46.277Z,6.82
2022-09-02T22:55:38.252Z,7.97
2022-09-02T22:58:41.166Z,8.00
2022-09-02T23:01:25.805Z,8.25
2022-09-02T23:04:38.786Z,8.60
2022-09-02T23:07:06.551Z,8.18
2022-09-02T23:09:37.813Z,8.73
2022-09-02T23:12:25.097Z,8.73
2022-09-02T23:15:24.735Z,9.00
2022-09-02T23:18:01.507Z,8.52
2022-09-02T23:20:49.615Z,8.63
2022-09-02T23:23:52.428Z,9.00
2022-09-02T23:26:51.095Z,9.32
2022-09-02T23:29:28.702Z,9.00
2022-09-02T23:32:43.602Z,9.35
2022-09-02T23:35:49.126Z,9.45
2022-09-02T23:38:47.750Z,9.20
2022-09-02T23:41:15.266Z,9.57
2022-09-02T23:43:43.729Z,9.82
2022-09-02T23:46:50.572Z,8.63
2022-09-02T23:49:26.735Z,7.35
2022-09-02T23:52:15.062Z,8.68
2022-09-02T23:55:16.976Z,9.43
2022-09-02T23:58:25.751Z,9.02
